createdAt,value
2022-11-19T00:04:03.808Z,6.7
2022-11-19T00:09:05.824Z,6.4
2022-11-19T00:14:08.159Z,6
2022-11-19T00:19:10.511Z,6.2
2022-11-19T00:24:12.684Z,6.7
2022-11-19T00:29:19.095Z,6.2
2022-11-19T00:34:22.123Z,6.7
2022-11-19T00:39:24.139Z,6.7
2022-11-19T00:44:26.312Z,7
2022-11-19T00:49:34.391Z,7
2022-11-19T00:54:36.339Z,7.4
2022-11-19T01:04:41.063Z,7.4
2022-11-19T01:09:42.999Z,7.8
2022-11-19T01:14:45.087Z,7
2022-11-19T01:19:47.288Z,7
2022-11-19T01:24:49.507Z,7.4
2022-11-19T01:29:51.799Z,7.2
2022-11-19T01:34:54.027Z,7.1
2022-11-19T01:39:56.061Z,8.2
2022-11-19T01:44:58.192Z,8.4
2022-11-19T01:50:00.577Z,8.9
2022-11-19T01:55:02.590Z,8.3
2022-11-19T02:00:04.534Z,8.8
2022-11-19T02:05:06.648Z,9.2
2022-11-19T02:10:08.713Z,9.1
2022-11-19T02:15:10.910Z,9.3
2022-11-19T02:20:13.774Z,9.2
2022-11-19T02:25:15.860Z,9.6
2022-11-19T02:30:18.307Z,9.7
2022-11-19T02:35:20.549Z,9.2
2022-11-19T02:40:22.500Z,9.7
2022-11-19T02:45:24.748Z,10.1
2022-11-19T02:50:27.042Z,9.6
2022-11-19T02:55:29.025Z,10
2022-11-19T03:00:31.278Z,10.1
2022-11-19T03:05:33.348Z,10.9
2022-11-19T03:10:35.440Z,11.1
2022-11-19T03:15:37.890Z,11.1
2022-11-19T03:20:40.519Z,11.3
2022-11-19T03:25:42.693Z,11.1
2022-11-19T03:30:44.975Z,11.5
2022-11-19T03:35:47.266Z,11.7
2022-11-19T03:40:49.386Z,11.9
2022-11-19T03:45:51.481Z,12.1
2022-11-19T03:50:53.489Z,12.4
2022-11-19T03:55:55.532Z,12.5
2022-11-19T04:00:58.037Z,13.1
2022-11-19T04:06:04.325Z,13
2022-11-19T04:16:15.880Z,14
2022-11-19T04:21:17.989Z,14
2022-11-19T04:26:19.992Z,14.8
2022-11-19T04:31:22.057Z,14.2
2022-11-19T04:36:24.158Z,14.9
2022-11-19T04:41:26.232Z,14.6
2022-11-19T04:46:28.545Z,14.2
2022-11-19T04:51:30.969Z,13.8
2022-11-19T04:56:33.289Z,13.7
2022-11-19T05:01:35.591Z,13.4
2022-11-19T05:06:38.176Z,12.8
2022-11-19T05:11:40.175Z,15.1
2022-11-19T05:16:42.404Z,14.1
2022-11-19T05:21:44.844Z,15.4
2022-11-19T05:26:46.959Z,15.4
2022-11-19T05:31:49.087Z,16.7
2022-11-19T05:36:51.077Z,16
2022-11-19T05:41:53.225Z,16.7
2022-11-19T05:46:55.542Z,17.1
2022-11-19T05:51:57.858Z,18.1
2022-11-19T05:56:59.927Z,16.8
2022-11-19T06:02:02.316Z,16.6
2022-11-19T06:07:04.428Z,16.1
2022-11-19T06:12:06.703Z,17.4
2022-11-19T06:17:09.844Z,16.9
2022-11-19T06:22:12.807Z,16.6
2022-11-19T06:27:15.007Z,16.4
2022-11-19T06:32:17.264Z,15.9
2022-11-19T06:37:19.485Z,16.5
2022-11-19T06:42:21.538Z,16.7
2022-11-19T06:47:23.546Z,16
2022-11-19T06:52:25.563Z,14.9
2022-11-19T06:57:27.630Z,15
2022-11-19T07:02:29.810Z,13.1
2022-11-19T07:07:31.828Z,11
2022-11-19T07:12:33.908Z,11.7
2022-11-19T07:17:36.074Z,10
2022-11-19T07:22:38.289Z,26
2022-11-19T07:27:40.192Z,11.3
2022-11-19T07:32:42.066Z,10
2022-11-19T07:37:43.973Z,10.9
2022-11-19T07:42:46.061Z,11.3
2022-11-19T07:47:47.983Z,11.5
2022-11-19T07:52:49.905Z,13
2022-11-19T07:57:51.896Z,11.1
2022-11-19T08:02:54.089Z,11.6
2022-11-19T08:07:56.084Z,11.4
2022-11-19T08:12:58.201Z,11.1
2022-11-19T08:18:00.118Z,10.9
2022-11-19T08:23:02.157Z,11
2022-11-19T08:28:04.008Z,11.6
2022-11-19T08:33:05.880Z,10.8
2022-11-19T08:38:07.792Z,11
2022-11-19T08:43:09.820Z,10.4
2022-11-19T08:48:12.085Z,10.4
2022-11-19T08:53:14.445Z,9.9
2022-11-19T08:58:16.669Z,10.1
2022-11-19T09:03:19.016Z,10.2
2022-11-19T09:08:20.895Z,10.9
2022-11-19T09:13:22.880Z,11
2022-11-19T09:18:25.090Z,10.8
2022-11-19T09:23:27.256Z,10.9
2022-11-19T09:28:29.457Z,10.5
2022-11-19T09:33:31.709Z,10.8
2022-11-19T09:38:33.924Z,14.7
2022-11-19T09:43:35.853Z,10.8
2022-11-19T09:48:38.094Z,10.1
2022-11-19T09:53:40.226Z,11.4
2022-11-19T09:58:42.155Z,11.7
2022-11-19T10:03:44.407Z,11.3
2022-11-19T10:08:46.674Z,10.1
2022-11-19T10:13:48.571Z,10.6
2022-11-19T10:18:50.681Z,11.2
2022-11-19T10:23:53.167Z,11
2022-11-19T10:28:55.122Z,11.8
2022-11-19T10:33:57.356Z,11.3
2022-11-19T10:38:59.492Z,11.2
2022-11-19T10:44:01.794Z,11.1
2022-11-19T10:49:05.871Z,10.7
2022-11-19T10:54:08.033Z,9.9
2022-11-19T10:59:09.998Z,10
2022-11-19T11:04:12.737Z,9.8
2022-11-19T11:09:14.899Z,12.7
2022-11-19T11:14:17.020Z,12.3
2022-11-19T11:19:19.851Z,12
2022-11-19T11:24:23.280Z,12.1
2022-11-19T11:29:25.410Z,10.7
2022-11-19T11:34:27.713Z,11.9
2022-11-19T11:39:29.930Z,26.9
2022-11-19T11:44:31.975Z,13.4
2022-11-19T11:49:33.983Z,12.9
2022-11-19T11:54:35.972Z,11.6
2022-11-19T11:59:37.986Z,11.8
2022-11-19T12:04:39.907Z,11.5
2022-11-19T12:09:41.887Z,12.2
2022-11-19T12:14:43.869Z,12.2
2022-11-19T12:19:45.954Z,12.6
2022-11-19T12:24:48.726Z,19.8
2022-11-19T12:29:50.746Z,10.6
2022-11-19T12:34:52.878Z,10.1
2022-11-19T12:39:55.033Z,9.8
2022-11-19T12:44:57.271Z,9.6
2022-11-19T12:49:59.189Z,9.3
2022-11-19T12:55:01.186Z,8.4
2022-11-19T13:00:03.159Z,8.8
2022-11-19T13:05:05.108Z,9.3
2022-11-19T13:10:07.811Z,9.4
2022-11-19T13:15:09.905Z,9.2
2022-11-19T13:20:11.972Z,9.8
2022-11-19T13:25:14.385Z,10.6
2022-11-19T13:30:16.381Z,11.3
2022-11-19T13:35:18.601Z,11.7
2022-11-19T13:40:20.855Z,13.2
2022-11-19T13:45:23.178Z,21
2022-11-19T13:50:24.131Z,14.4
2022-11-19T13:55:26.491Z,22.2
2022-11-19T14:00:28.817Z,14.2
2022-11-19T14:05:31.409Z,14.7
2022-11-19T14:10:33.605Z,13
2022-11-19T14:15:35.750Z,11.9
2022-11-19T14:20:37.736Z,12
2022-11-19T14:25:39.950Z,11.8
2022-11-19T14:30:42.018Z,10.4
2022-11-19T14:35:44.131Z,11.1
2022-11-19T14:40:46.100Z,10.8
2022-11-19T14:45:48.290Z,10.9
2022-11-19T14:50:50.235Z,11.6
2022-11-19T14:55:52.251Z,11.9
2022-11-19T15:00:54.321Z,12.4
2022-11-19T15:05:56.353Z,15.2
2022-11-19T15:10:58.477Z,11.4
2022-11-19T15:16:00.496Z,10.8
2022-11-19T15:21:02.951Z,10.9
2022-11-19T15:26:05.191Z,11.6
2022-11-19T15:31:07.324Z,11
2022-11-19T15:36:10.038Z,10.6
2022-11-19T15:41:12.606Z,11.4
2022-11-19T15:46:14.695Z,11.4
2022-11-19T15:51:16.709Z,10.6
2022-11-19T15:56:18.688Z,11.2
2022-11-19T16:01:21.382Z,10.8
2022-11-19T16:06:24.163Z,10.5
2022-11-19T16:11:26.520Z,11.1
2022-11-19T16:16:28.871Z,11.3
2022-11-19T16:21:31.092Z,11.3
2022-11-19T16:26:33.627Z,11.1
2022-11-19T16:31:35.890Z,10.7
2022-11-19T16:36:38.201Z,9.9
2022-11-19T16:41:40.448Z,10.5
2022-11-19T16:46:42.501Z,10.6
2022-11-19T16:51:44.780Z,10.6
2022-11-19T16:56:47.257Z,11.4
2022-11-19T17:01:49.317Z,13.9
2022-11-19T17:06:52.010Z,12.8
2022-11-19T17:11:54.183Z,11.8
2022-11-19T17:16:56.243Z,11.6
2022-11-19T17:21:58.803Z,17.7
2022-11-19T17:27:01.557Z,12.1
2022-11-19T17:32:03.596Z,12.1
2022-11-19T17:37:05.577Z,12.8
2022-11-19T17:42:07.766Z,13.3
2022-11-19T17:47:23.416Z,13.3
2022-11-19T17:52:18.881Z,13.7
2022-11-19T17:57:22.913Z,14.5
2022-11-19T18:02:24.897Z,14
2022-11-19T18:07:27.188Z,14.4
2022-11-19T18:12:29.417Z,13.8
2022-11-19T18:17:31.479Z,16.9
2022-11-19T18:22:33.534Z,13.7
2022-11-19T18:27:36.037Z,14
2022-11-19T18:32:38.380Z,14.1
2022-11-19T18:37:40.353Z,14
2022-11-19T18:42:42.354Z,13.5
2022-11-19T18:47:44.748Z,13.9
2022-11-19T18:52:46.804Z,14
2022-11-19T18:57:49.407Z,13.3
2022-11-19T19:02:51.399Z,12.5
2022-11-19T19:07:53.795Z,20.3
2022-11-19T19:12:54.190Z,13.7
2022-11-19T19:17:56.301Z,12.8
2022-11-19T19:22:58.438Z,12.8
2022-11-19T19:28:00.767Z,13.2
2022-11-19T19:33:02.868Z,13.5
2022-11-19T19:38:05.102Z,12.7
2022-11-19T19:43:07.342Z,12.6
2022-11-19T19:48:10.298Z,12.4
2022-11-19T19:53:12.489Z,12.9
2022-11-19T19:58:14.610Z,12.3
2022-11-19T20:03:16.914Z,11.8
2022-11-19T20:08:19.051Z,11.9
2022-11-19T20:13:21.027Z,12.5
2022-11-19T20:18:23.088Z,13.2
2022-11-19T20:23:25.079Z,12.6
2022-11-19T20:28:28.949Z,12.5
2022-11-19T20:33:31.210Z,12.5
2022-11-19T20:38:33.367Z,13.6
2022-11-19T20:43:44.486Z,13.3
2022-11-19T20:48:43.842Z,14
2022-11-19T20:53:45.857Z,14
2022-11-19T20:58:48.045Z,13.3
2022-11-19T21:03:50.128Z,13.7
2022-11-19T21:08:52.072Z,13.9
2022-11-19T21:13:54.174Z,13.4
2022-11-19T21:18:56.280Z,14.2
2022-11-19T21:23:58.393Z,13.8
2022-11-19T21:29:00.657Z,13.6
2022-11-19T21:34:02.690Z,13.8
2022-11-19T21:39:04.864Z,14.9
2022-11-19T21:44:09.963Z,14.1
2022-11-19T21:49:17.012Z,13.6
2022-11-19T21:54:20.927Z,14
2022-11-19T21:59:23.531Z,13.7
2022-11-19T22:04:25.886Z,12.9
2022-11-19T22:09:27.986Z,12.9
2022-11-19T22:14:30.003Z,12.8
2022-11-19T22:19:32.061Z,12.3
2022-11-19T22:24:34.077Z,12.4
2022-11-19T22:29:36.426Z,12.2
2022-11-19T22:34:38.517Z,11.5
2022-11-19T22:39:40.766Z,11
2022-11-19T22:44:42.823Z,11.5
2022-11-19T22:49:44.896Z,11.4
2022-11-19T22:54:47.164Z,11.8
2022-11-19T22:59:52.031Z,12.4
2022-11-19T23:04:54.027Z,11.5
2022-11-19T23:09:56.122Z,12
2022-11-19T23:14:58.315Z,12.3
2022-11-19T23:20:05.349Z,11.9
2022-11-19T23:25:07.530Z,11.7
2022-11-19T23:30:10.643Z,11.3
2022-11-19T23:35:12.703Z,11.1
2022-11-19T23:40:15.036Z,11.4
2022-11-19T23:45:18.284Z,11.3
2022-11-19T23:50:20.430Z,11.8
2022-11-19T23:55:22.514Z,11.9
